createdAt,value
2023-10-06T00:02:31.829Z,1.71
2023-10-06T00:04:59.115Z,1.68
2023-10-06T00:07:27.436Z,1.68
2023-10-06T00:09:57.133Z,1.64
2023-10-06T00:12:27.064Z,1.62
2023-10-06T00:14:53.893Z,1.60
2023-10-06T00:17:20.788Z,1.58
2023-10-06T00:19:53.448Z,1.57
2023-10-06T00:22:20.306Z,1.58
2023-10-06T00:24:48.910Z,1.57
2023-10-06T00:27:16.979Z,1.56
2023-10-06T00:29:55.332Z,1.55
2023-10-06T00:32:29.025Z,1.52
2023-10-06T00:35:09.703Z,1.51
2023-10-06T00:37:39.974Z,1.52
2023-10-06T00:40:21.103Z,1.50
2023-10-06T00:42:58.976Z,1.49
2023-10-06T00:45:27.522Z,1.48
2023-10-06T00:47:54.876Z,1.48
2023-10-06T00:50:25.757Z,1.48
2023-10-06T00:52:53.218Z,1.46
2023-10-06T00:55:21.397Z,1.45
2023-10-06T00:57:54.313Z,1.43
2023-10-06T01:00:22.153Z,1.42
2023-10-06T01:02:52.435Z,1.40
2023-10-06T01:05:22.844Z,1.40
2023-10-06T01:07:50.913Z,1.41
2023-10-06T01:10:19.803Z,1.40
2023-10-06T01:12:51.879Z,1.41
2023-10-06T01:15:20.688Z,1.40
2023-10-06T01:17:48.704Z,1.39
2023-10-06T01:20:42.259Z,1.39
2023-10-06T01:23:21.321Z,1.35
2023-10-06T01:26:01.059Z,1.32
2023-10-06T01:28:28.052Z,1.31
2023-10-06T01:30:54.659Z,1.30
2023-10-06T01:33:21.412Z,1.28
2023-10-06T01:35:48.011Z,1.27
2023-10-06T01:38:20.666Z,1.26
2023-10-06T01:40:57.270Z,1.27
2023-10-06T01:43:24.263Z,1.26
2023-10-06T01:45:52.362Z,1.24
2023-10-06T01:48:21.587Z,1.25
2023-10-06T01:50:51.415Z,1.25
2023-10-06T01:53:21.757Z,1.22
2023-10-06T01:55:55.628Z,1.19
2023-10-06T01:58:22.515Z,1.17
2023-10-06T02:00:49.786Z,1.16
2023-10-06T02:03:22.489Z,1.14
2023-10-06T02:05:49.598Z,1.14
2023-10-06T02:08:22.112Z,1.12
2023-10-06T02:10:49.079Z,1.12
2023-10-06T02:13:22.225Z,1.10
2023-10-06T02:16:00.389Z,1.08
2023-10-06T02:18:37.701Z,1.07
2023-10-06T02:21:15.891Z,1.05
2023-10-06T02:23:43.413Z,1.06
2023-10-06T02:26:10.906Z,1.06
2023-10-06T02:28:44.953Z,1.05
2023-10-06T02:31:12.968Z,1.03
2023-10-06T02:33:41.253Z,1.01
2023-10-06T02:36:17.087Z,0.99
2023-10-06T02:38:48.107Z,0.99
2023-10-06T02:41:20.565Z,1.00
2023-10-06T02:43:52.265Z,1.00
2023-10-06T02:46:24.578Z,0.99
2023-10-06T02:48:52.420Z,1.01
2023-10-06T02:51:50.200Z,1.04
2023-10-06T02:54:16.996Z,1.04
2023-10-06T02:56:46.718Z,1.06
2023-10-06T02:59:23.069Z,1.06
2023-10-06T03:01:53.426Z,1.08
2023-10-06T03:04:22.827Z,1.09
2023-10-06T03:06:57.084Z,1.10
2023-10-06T03:09:39.521Z,1.10
2023-10-06T03:12:33.150Z,1.13
2023-10-06T03:15:00.032Z,1.13
2023-10-06T03:17:27.772Z,1.14
2023-10-06T03:20:11.928Z,1.15
2023-10-06T03:22:39.739Z,1.19
2023-10-06T03:25:16.986Z,1.19
2023-10-06T03:27:43.974Z,1.19
2023-10-06T03:30:20.495Z,1.17
2023-10-06T03:32:50.658Z,1.19
2023-10-06T03:35:36.811Z,1.20
2023-10-06T03:38:24.150Z,1.21
2023-10-06T03:40:53.591Z,1.21
2023-10-06T03:43:39.909Z,1.18
2023-10-06T03:46:09.421Z,1.17
2023-10-06T03:48:37.259Z,1.17
2023-10-06T03:51:04.090Z,1.17
2023-10-06T03:53:30.901Z,1.19
2023-10-06T03:56:00.891Z,1.19
2023-10-06T03:58:30.669Z,1.18
2023-10-06T04:00:57.345Z,1.18
2023-10-06T04:03:24.390Z,1.18
2023-10-06T04:05:52.877Z,1.17
2023-10-06T04:08:23.965Z,1.17
2023-10-06T04:10:59.212Z,1.18
2023-10-06T04:13:29.242Z,1.14
2023-10-06T04:15:58.052Z,1.13
2023-10-06T04:18:26.076Z,1.13
2023-10-06T04:20:54.673Z,1.10
2023-10-06T04:23:25.519Z,1.12
2023-10-06T04:25:58.257Z,1.11
2023-10-06T04:28:30.217Z,1.12
2023-10-06T04:31:02.157Z,1.11
2023-10-06T04:33:32.307Z,1.11
2023-10-06T04:36:14.051Z,1.11
2023-10-06T04:38:41.586Z,1.11
2023-10-06T04:41:10.199Z,1.11
2023-10-06T04:43:38.435Z,1.13
2023-10-06T04:46:07.922Z,1.13
2023-10-06T04:48:37.280Z,1.13
2023-10-06T04:51:05.141Z,1.13
2023-10-06T04:53:36.640Z,1.15
2023-10-06T04:56:05.172Z,1.16
2023-10-06T04:58:32.380Z,1.17
2023-10-06T05:01:02.088Z,1.19
2023-10-06T05:03:28.957Z,1.19
2023-10-06T05:05:57.064Z,1.21
2023-10-06T05:08:25.941Z,1.21
2023-10-06T05:10:54.156Z,1.21
2023-10-06T05:13:21.765Z,1.22
2023-10-06T05:15:48.510Z,1.23
2023-10-06T05:18:17.946Z,1.23
2023-10-06T05:20:44.808Z,1.26
2023-10-06T05:23:15.761Z,1.26
2023-10-06T05:25:46.040Z,1.27
2023-10-06T05:28:14.543Z,1.28
2023-10-06T05:30:43.200Z,1.29
2023-10-06T05:33:10.698Z,1.32
2023-10-06T05:35:41.592Z,1.36
2023-10-06T05:38:09.644Z,1.38
2023-10-06T05:40:36.639Z,1.43
2023-10-06T05:43:05.426Z,1.48
2023-10-06T05:45:32.278Z,1.51
2023-10-06T05:48:00.146Z,1.56
2023-10-06T05:50:29.957Z,1.61
2023-10-06T05:53:02.879Z,1.68
2023-10-06T05:55:31.670Z,1.74
2023-10-06T05:58:01.472Z,1.79
2023-10-06T06:00:32.504Z,1.88
2023-10-06T06:03:11.578Z,1.96
2023-10-06T06:05:39.889Z,2.02
2023-10-06T06:08:09.845Z,2.11
2023-10-06T06:10:37.562Z,2.21
2023-10-06T06:13:05.018Z,2.29
2023-10-06T06:15:33.016Z,2.39
2023-10-06T06:18:00.210Z,2.49
2023-10-06T06:20:27.308Z,2.58
2023-10-06T06:23:00.916Z,2.67
2023-10-06T06:25:27.690Z,2.78
2023-10-06T06:27:55.652Z,2.88
2023-10-06T06:30:25.070Z,2.99
2023-10-06T06:32:54.165Z,3.08
2023-10-06T06:35:22.678Z,3.20
2023-10-06T06:38:02.755Z,3.30
2023-10-06T06:40:29.991Z,3.40
2023-10-06T06:42:56.972Z,3.51
2023-10-06T06:45:25.712Z,3.61
2023-10-06T06:47:53.366Z,3.70
2023-10-06T06:50:20.668Z,3.81
2023-10-06T06:52:49.619Z,3.91
2023-10-06T06:55:16.313Z,4.00
2023-10-06T06:57:50.669Z,4.10
2023-10-06T07:00:26.017Z,4.20
2023-10-06T07:02:54.120Z,4.30
2023-10-06T07:05:22.854Z,4.38
2023-10-06T07:07:54.058Z,4.48
2023-10-06T07:10:23.907Z,4.57
2023-10-06T07:12:52.453Z,4.69
2023-10-06T07:15:21.021Z,4.80
2023-10-06T07:17:50.054Z,4.91
2023-10-06T07:20:25.450Z,4.99
2023-10-06T07:22:55.622Z,5.11
2023-10-06T07:25:25.407Z,5.21
2023-10-06T07:27:54.430Z,5.33
2023-10-06T07:30:23.983Z,5.43
2023-10-06T07:32:58.196Z,5.52
2023-10-06T07:35:38.243Z,5.61
2023-10-06T07:38:05.260Z,5.72
2023-10-06T07:40:32.416Z,5.81
2023-10-06T07:42:59.941Z,5.91
2023-10-06T07:45:31.659Z,6.01
2023-10-06T07:47:58.400Z,6.11
2023-10-06T07:50:27.875Z,6.22
2023-10-06T07:52:54.529Z,6.30
2023-10-06T07:55:24.222Z,6.38
2023-10-06T07:57:52.338Z,6.48
2023-10-06T08:00:31.395Z,6.56
2023-10-06T08:03:00.924Z,6.64
2023-10-06T08:05:30.689Z,6.73
2023-10-06T08:07:59.784Z,6.81
2023-10-06T08:10:26.897Z,6.89
2023-10-06T08:12:57.735Z,6.97
2023-10-06T08:15:26.827Z,7.07
2023-10-06T08:17:54.912Z,7.18
2023-10-06T08:20:22.248Z,7.28
2023-10-06T08:22:50.332Z,7.38
2023-10-06T08:25:18.827Z,7.48
2023-10-06T08:27:47.154Z,7.57
2023-10-06T08:30:18.211Z,7.68
2023-10-06T08:32:50.399Z,7.77
2023-10-06T08:35:17.547Z,7.88
2023-10-06T08:37:45.301Z,7.96
2023-10-06T08:40:18.398Z,8.05
2023-10-06T08:42:50.949Z,8.16
2023-10-06T08:45:23.578Z,8.24
2023-10-06T08:48:00.716Z,8.32
2023-10-06T08:50:32.841Z,8.41
2023-10-06T08:53:02.427Z,8.48
2023-10-06T08:55:30.296Z,8.60
2023-10-06T08:58:02.835Z,8.68
2023-10-06T09:00:33.068Z,8.77
2023-10-06T09:03:09.164Z,8.84
2023-10-06T09:05:39.531Z,8.92
2023-10-06T09:08:11.235Z,8.97
2023-10-06T09:10:41.694Z,9.04
2023-10-06T09:13:13.151Z,9.09
2023-10-06T09:15:42.343Z,9.17
2023-10-06T09:18:28.549Z,9.24
2023-10-06T09:20:58.263Z,9.34
2023-10-06T09:23:32.377Z,9.44
2023-10-06T09:26:01.666Z,9.54
2023-10-06T09:28:29.353Z,9.62
2023-10-06T09:30:58.757Z,9.71
2023-10-06T09:33:27.905Z,9.80
2023-10-06T09:36:36.284Z,9.88
2023-10-06T09:39:15.484Z,9.97
2023-10-06T09:41:42.532Z,10.03
2023-10-06T09:44:13.611Z,10.12
2023-10-06T09:46:44.742Z,10.22
2023-10-06T09:49:17.432Z,10.30
2023-10-06T09:51:45.627Z,10.40
2023-10-06T09:54:14.005Z,10.49
2023-10-06T09:56:43.804Z,10.57
2023-10-06T09:59:14.809Z,10.61
2023-10-06T10:01:48.427Z,10.67
2023-10-06T10:04:19.508Z,10.72
2023-10-06T10:06:46.402Z,10.76
2023-10-06T10:09:17.743Z,10.79
2023-10-06T10:12:15.037Z,10.83
2023-10-06T10:14:50.966Z,10.87
2023-10-06T10:17:30.472Z,10.90
2023-10-06T10:19:58.708Z,10.93
2023-10-06T10:22:26.303Z,10.97
2023-10-06T10:27:24.647Z,11.03
2023-10-06T10:29:52.121Z,11.08
2023-10-06T10:32:24.459Z,11.12
2023-10-06T10:35:14.402Z,11.16
2023-10-06T10:38:05.577Z,11.19
2023-10-06T10:40:48.246Z,11.23
2023-10-06T10:43:15.695Z,11.30
2023-10-06T10:45:46.705Z,11.34
2023-10-06T10:48:15.469Z,11.38
2023-10-06T10:50:54.138Z,11.38
2023-10-06T10:53:22.260Z,11.41
2023-10-06T10:55:49.754Z,11.41
2023-10-06T10:58:50.732Z,11.40
2023-10-06T11:01:41.437Z,11.41
2023-10-06T11:04:14.465Z,11.42
2023-10-06T11:06:44.276Z,11.43
2023-10-06T11:09:26.509Z,11.47
2023-10-06T11:12:20.414Z,11.48
2023-10-06T11:14:53.083Z,11.53
2023-10-06T11:17:22.024Z,11.56
2023-10-06T11:20:03.206Z,11.58
2023-10-06T11:22:31.598Z,11.57
2023-10-06T11:25:04.159Z,11.56
2023-10-06T11:27:30.771Z,11.52
2023-10-06T11:29:59.503Z,11.50
2023-10-06T11:32:27.876Z,11.47
2023-10-06T11:34:55.654Z,11.44
2023-10-06T11:37:26.147Z,11.39
2023-10-06T11:39:54.674Z,11.35
2023-10-06T11:42:28.860Z,11.34
2023-10-06T11:44:56.924Z,11.35
2023-10-06T11:47:29.947Z,11.33
2023-10-06T11:49:58.596Z,11.32
2023-10-06T11:52:28.958Z,11.30
2023-10-06T11:54:57.479Z,11.29
2023-10-06T11:57:52.697Z,11.27
2023-10-06T12:00:34.979Z,11.21
2023-10-06T12:03:02.363Z,11.12
2023-10-06T12:05:29.969Z,11.08
2023-10-06T12:08:09.787Z,11.04
2023-10-06T12:13:38.374Z,10.92
2023-10-06T12:16:15.260Z,10.86
2023-10-06T12:18:45.930Z,10.85
2023-10-06T12:21:15.505Z,10.81
2023-10-06T12:23:43.550Z,10.78
2023-10-06T12:26:10.354Z,10.76
2023-10-06T12:28:40.034Z,10.71
2023-10-06T12:31:07.220Z,10.68
2023-10-06T12:33:34.292Z,10.64
2023-10-06T12:36:05.027Z,10.60
2023-10-06T12:38:31.660Z,10.59
2023-10-06T12:40:58.310Z,10.60
2023-10-06T12:43:24.892Z,10.63
2023-10-06T12:45:51.756Z,10.66
2023-10-06T12:48:18.445Z,10.70
2023-10-06T12:50:45.108Z,10.71
2023-10-06T12:53:12.883Z,10.74
2023-10-06T12:55:43.297Z,10.75
2023-10-06T12:58:12.868Z,10.75
2023-10-06T13:00:39.953Z,10.75
2023-10-06T13:03:12.787Z,10.75
2023-10-06T13:05:39.552Z,10.75
2023-10-06T13:08:06.152Z,10.75
2023-10-06T13:10:32.723Z,10.77
2023-10-06T13:12:59.422Z,10.78
2023-10-06T13:15:30.320Z,10.79
2023-10-06T13:17:57.003Z,10.78
2023-10-06T13:20:23.622Z,10.78
2023-10-06T13:22:50.605Z,10.79
2023-10-06T13:25:18.984Z,10.81
2023-10-06T13:27:49.037Z,10.81
2023-10-06T13:30:18.083Z,10.78
2023-10-06T13:32:49.656Z,10.77
2023-10-06T13:35:17.750Z,10.76
2023-10-06T13:37:50.447Z,10.75
2023-10-06T13:40:19.677Z,10.75
2023-10-06T13:42:51.340Z,10.71
2023-10-06T13:45:26.387Z,10.71
2023-10-06T13:47:54.971Z,10.68
2023-10-06T13:50:22.993Z,10.66
2023-10-06T13:52:50.879Z,10.66
2023-10-06T13:55:22.619Z,10.64
2023-10-06T13:57:54.546Z,10.65
2023-10-06T14:00:33.772Z,10.66
2023-10-06T14:03:02.292Z,10.66
2023-10-06T14:05:32.407Z,10.64
2023-10-06T14:08:05.352Z,10.65
2023-10-06T14:10:33.379Z,10.64
2023-10-06T14:13:22.346Z,10.66
2023-10-06T14:15:55.390Z,10.67
2023-10-06T14:18:33.642Z,10.65
2023-10-06T14:21:07.166Z,10.66
2023-10-06T14:23:37.326Z,10.66
2023-10-06T14:26:09.576Z,10.68
2023-10-06T14:28:36.162Z,10.66
2023-10-06T14:31:17.678Z,10.67
2023-10-06T14:33:58.990Z,10.69
2023-10-06T14:36:27.635Z,10.72
2023-10-06T14:39:12.494Z,10.73
2023-10-06T14:41:57.491Z,10.74
2023-10-06T14:44:42.758Z,10.74
2023-10-06T14:47:11.048Z,10.74
2023-10-06T14:49:44.439Z,10.75
2023-10-06T14:52:12.305Z,10.75
2023-10-06T14:54:39.855Z,10.77
2023-10-06T14:57:06.695Z,10.80
2023-10-06T14:59:33.594Z,10.82
2023-10-06T15:02:07.862Z,10.83
2023-10-06T15:04:35.767Z,10.85
2023-10-06T15:07:03.033Z,10.86
2023-10-06T15:09:31.810Z,10.87
2023-10-06T15:11:58.601Z,10.90
2023-10-06T15:14:26.471Z,10.91
2023-10-06T15:16:54.782Z,10.93
2023-10-06T15:19:26.448Z,10.96
2023-10-06T15:21:54.040Z,10.98
2023-10-06T15:24:20.752Z,11.00
2023-10-06T15:26:48.810Z,11.02
2023-10-06T15:29:16.607Z,11.05
2023-10-06T15:31:43.423Z,11.05
2023-10-06T15:34:10.164Z,11.06
2023-10-06T15:36:37.866Z,11.09
2023-10-06T15:39:19.037Z,11.10
2023-10-06T15:41:52.736Z,11.11
2023-10-06T15:44:20.142Z,11.12
2023-10-06T15:46:47.394Z,11.15
2023-10-06T15:49:18.173Z,11.15
2023-10-06T15:54:34.520Z,11.17
2023-10-06T15:57:01.398Z,11.19
2023-10-06T15:59:31.020Z,11.22
2023-10-06T16:01:57.979Z,11.23
2023-10-06T16:04:26.656Z,11.22
2023-10-06T16:06:54.633Z,11.26
2023-10-06T16:09:21.499Z,11.28
2023-10-06T16:11:49.093Z,11.30
2023-10-06T16:14:19.594Z,11.32
2023-10-06T16:16:49.305Z,11.36
2023-10-06T16:19:18.321Z,11.37
2023-10-06T16:21:45.459Z,11.40
2023-10-06T16:24:14.518Z,11.41
2023-10-06T16:26:42.244Z,11.40
2023-10-06T16:29:11.153Z,11.42
2023-10-06T16:31:39.193Z,11.43
2023-10-06T16:34:05.882Z,11.45
2023-10-06T16:36:33.167Z,11.47
2023-10-06T16:39:00.453Z,11.49
2023-10-06T16:41:27.209Z,11.51
2023-10-06T16:43:55.049Z,11.53
2023-10-06T16:46:21.851Z,11.55
2023-10-06T16:48:48.956Z,11.56
2023-10-06T16:51:15.798Z,11.59
2023-10-06T16:53:42.523Z,11.61
2023-10-06T16:56:09.607Z,11.64
2023-10-06T16:58:36.427Z,11.67
2023-10-06T17:01:09.092Z,11.67
2023-10-06T17:03:36.750Z,11.72
2023-10-06T17:06:05.258Z,11.73
2023-10-06T17:08:32.118Z,11.76
2023-10-06T17:11:15.580Z,11.78
2023-10-06T17:13:42.797Z,11.82
2023-10-06T17:16:10.686Z,11.85
2023-10-06T17:18:37.889Z,11.87
2023-10-06T17:21:08.177Z,11.90
2023-10-06T17:23:35.326Z,11.92
2023-10-06T17:26:02.933Z,11.95
2023-10-06T17:28:31.016Z,11.98
2023-10-06T17:31:01.747Z,12.00
2023-10-06T17:33:29.998Z,12.03
2023-10-06T17:35:58.050Z,12.04
2023-10-06T17:38:24.874Z,12.07
2023-10-06T17:40:51.532Z,12.08
2023-10-06T17:43:18.415Z,12.10
2023-10-06T17:45:45.709Z,12.13
2023-10-06T17:48:15.145Z,12.16
2023-10-06T17:50:51.218Z,12.17
2023-10-06T17:53:17.839Z,12.20
2023-10-06T17:55:54.132Z,12.22
2023-10-06T17:58:21.564Z,12.26
2023-10-06T18:00:49.769Z,12.28
2023-10-06T18:03:18.536Z,12.31
2023-10-06T18:05:48.936Z,12.33
2023-10-06T18:08:17.442Z,12.37
2023-10-06T18:10:44.630Z,12.39
2023-10-06T18:13:12.907Z,12.42
2023-10-06T18:15:39.567Z,12.43
2023-10-06T18:18:06.228Z,12.46
2023-10-06T18:20:40.045Z,12.48
2023-10-06T18:23:07.680Z,12.51
2023-10-06T18:25:35.164Z,12.53
2023-10-06T18:28:06.142Z,12.56
2023-10-06T18:30:33.702Z,12.59
2023-10-06T18:33:00.324Z,12.60
2023-10-06T18:35:27.199Z,12.63
2023-10-06T18:37:54.802Z,12.67
2023-10-06T18:40:21.522Z,12.70
2023-10-06T18:42:48.568Z,12.72
2023-10-06T18:45:15.353Z,12.75
2023-10-06T18:47:42.088Z,12.76
2023-10-06T18:50:18.910Z,12.79
2023-10-06T18:52:52.996Z,12.81
2023-10-06T18:55:23.831Z,12.80
2023-10-06T18:57:52.045Z,12.83
2023-10-06T19:00:19.148Z,12.82
2023-10-06T19:02:48.375Z,12.84
2023-10-06T19:05:15.892Z,12.86
2023-10-06T19:07:43.449Z,12.88
2023-10-06T19:10:15.853Z,12.90
2023-10-06T19:12:42.875Z,12.89
2023-10-06T19:15:09.902Z,12.90
2023-10-06T19:17:40.637Z,12.92
2023-10-06T19:20:08.834Z,12.91
2023-10-06T19:22:36.206Z,12.94
2023-10-06T19:25:03.195Z,12.98
2023-10-06T19:27:30.092Z,13.00
2023-10-06T19:29:56.761Z,13.01
2023-10-06T19:32:24.919Z,13.01
2023-10-06T19:34:52.683Z,13.02
2023-10-06T19:37:20.842Z,13.04
2023-10-06T19:39:47.692Z,13.04
2023-10-06T19:42:14.469Z,13.06
2023-10-06T19:44:44.509Z,13.06
2023-10-06T19:47:13.193Z,13.08
2023-10-06T19:49:40.235Z,13.11
2023-10-06T19:52:09.514Z,13.11
2023-10-06T19:54:36.964Z,13.13
2023-10-06T19:57:04.240Z,13.14
2023-10-06T19:59:33.765Z,13.15
2023-10-06T20:02:02.208Z,13.13
2023-10-06T20:04:29.034Z,13.13
2023-10-06T20:06:55.816Z,13.16
2023-10-06T20:09:25.265Z,13.16
2023-10-06T20:11:52.302Z,13.18
2023-10-06T20:14:19.081Z,13.21
2023-10-06T20:16:45.807Z,13.22
2023-10-06T20:19:12.721Z,13.24
2023-10-06T20:21:40.605Z,13.24
2023-10-06T20:24:12.756Z,13.25
2023-10-06T20:26:42.220Z,13.27
2023-10-06T20:29:12.038Z,13.28
2023-10-06T20:31:39.981Z,13.31
2023-10-06T20:34:07.667Z,13.34
2023-10-06T20:36:35.152Z,13.35
2023-10-06T20:39:09.676Z,13.35
2023-10-06T20:41:41.356Z,13.36
2023-10-06T20:44:11.904Z,13.34
2023-10-06T20:46:45.986Z,13.35
2023-10-06T20:49:15.178Z,13.34
2023-10-06T20:51:42.554Z,13.32
2023-10-06T20:54:09.713Z,13.34
2023-10-06T20:56:36.570Z,13.35
2023-10-06T20:59:03.209Z,13.34
2023-10-06T21:01:33.116Z,13.37
2023-10-06T21:04:06.200Z,13.36
2023-10-06T21:06:35.732Z,13.37
2023-10-06T21:09:05.795Z,13.37
2023-10-06T21:11:35.162Z,13.38
2023-10-06T21:14:01.883Z,13.37
2023-10-06T21:16:28.648Z,13.38
2023-10-06T21:18:55.618Z,13.37
2023-10-06T21:21:22.591Z,13.37
2023-10-06T21:23:49.230Z,13.37
2023-10-06T21:26:15.940Z,13.35
2023-10-06T21:28:42.701Z,13.35
2023-10-06T21:31:09.463Z,13.33
2023-10-06T21:33:36.917Z,13.31
2023-10-06T21:36:03.982Z,13.30
2023-10-06T21:38:31.693Z,13.28
2023-10-06T21:41:02.912Z,13.28
2023-10-06T21:43:29.708Z,13.29
2023-10-06T21:45:56.353Z,13.28
2023-10-06T21:48:22.974Z,13.14
2023-10-06T21:50:50.372Z,12.87
2023-10-06T21:53:17.262Z,12.60
2023-10-06T21:55:44.942Z,12.35
2023-10-06T21:58:11.560Z,12.17
2023-10-06T22:00:43.641Z,12.02
2023-10-06T22:03:11.758Z,11.84
2023-10-06T22:05:41.430Z,11.72
2023-10-06T22:08:09.542Z,11.59
2023-10-06T22:10:39.079Z,11.46
2023-10-06T22:13:05.754Z,11.34
2023-10-06T22:15:32.354Z,11.20
2023-10-06T22:17:59.780Z,11.06
2023-10-06T22:20:31.842Z,10.97
2023-10-06T22:23:00.244Z,10.87
2023-10-06T22:25:28.345Z,10.78
2023-10-06T22:27:56.246Z,10.68
2023-10-06T22:30:24.101Z,10.55
2023-10-06T22:32:50.942Z,10.52
2023-10-06T22:35:17.751Z,10.43
2023-10-06T22:37:44.436Z,10.33
2023-10-06T22:40:17.584Z,10.25
2023-10-06T22:42:48.897Z,10.19
2023-10-06T22:45:17.111Z,10.11
2023-10-06T22:47:44.478Z,10.03
2023-10-06T22:50:12.984Z,9.91
2023-10-06T22:52:41.606Z,9.81
2023-10-06T22:55:09.889Z,9.73
2023-10-06T22:57:36.542Z,9.62
2023-10-06T23:00:03.281Z,9.56
2023-10-06T23:02:29.936Z,9.53
2023-10-06T23:04:56.618Z,9.46
2023-10-06T23:07:23.283Z,9.38
2023-10-06T23:09:50.483Z,9.32
2023-10-06T23:12:17.112Z,9.28
2023-10-06T23:14:43.695Z,9.24
2023-10-06T23:17:11.098Z,9.19
2023-10-06T23:19:37.770Z,9.17
2023-10-06T23:22:04.418Z,9.14
2023-10-06T23:24:49.545Z,9.10
2023-10-06T23:27:23.154Z,9.05
2023-10-06T23:29:50.989Z,9.02
2023-10-06T23:32:18.489Z,9.01
2023-10-06T23:34:45.427Z,8.98
2023-10-06T23:37:17.601Z,8.97
2023-10-06T23:39:50.590Z,8.98
2023-10-06T23:42:17.499Z,8.97
2023-10-06T23:44:44.474Z,8.95
2023-10-06T23:47:11.654Z,8.93
2023-10-06T23:49:47.760Z,8.90
2023-10-06T23:52:15.108Z,8.86
2023-10-06T23:54:48.687Z,8.82
2023-10-06T23:57:18.762Z,8.78
2023-10-06T23:59:49.284Z,8.75
